Time;durP1;ratioP1;P1;durP2;ratioP2;P2;SDS_P1;SDS_P2;PMS_P1;PMS_P2;Temp;Humidity;BMP_temperature;BMP_pressure;BME280_temperature;BME280_humidity;BME280_pressure;Samples;Min_cycle;Max_cycle;Signal;HPM_P1;HPM_P2
2021/04/21 00:01:48;;;;;;;62.63;40.25;;;10.00;99.90;;;;;;5119560;28;20031;-73
2021/04/21 00:04:16;;;;;;;61.80;41.58;;;10.00;99.90;;;;;;5120039;28;20047;-72
2021/04/21 00:06:42;;;;;;;54.78;34.30;;;10.00;99.90;;;;;;5120415;28;20035;-75
2021/04/21 00:09:16;;;;;;;46.38;31.38;;;10.00;99.90;;;;;;5118491;28;20024;-72
2021/04/21 00:11:43;;;;;;;40.72;27.67;;;9.90;99.90;;;;;;5118951;28;20365;-74
2021/04/21 00:14:17;;;;;;;59.00;38.28;;;9.80;99.90;;;;;;5120593;28;20034;-71
2021/04/21 00:16:45;;;;;;;44.25;30.00;;;9.80;99.90;;;;;;5120050;28;20019;-72
2021/04/21 00:19:15;;;;;;;43.45;29.75;;;9.80;99.90;;;;;;5122353;28;20031;-72
2021/04/21 00:21:44;;;;;;;43.92;32.72;;;9.80;99.90;;;;;;5118674;27;20055;-75
2021/04/21 00:24:11;;;;;;;44.70;30.73;;;9.70;99.90;;;;;;5122400;28;20051;-72
2021/04/21 00:26:38;;;;;;;61.40;40.65;;;9.70;99.90;;;;;;5116624;28;20062;-71
2021/04/21 00:29:08;;;;;;;51.63;35.28;;;9.60;99.90;;;;;;5119278;28;20011;-72
2021/04/21 00:31:34;;;;;;;38.20;27.98;;;9.60;99.90;;;;;;5119191;27;20019;-73
2021/04/21 00:34:02;;;;;;;37.33;25.05;;;9.60;99.90;;;;;;5120880;28;20554;-71
2021/04/21 00:36:35;;;;;;;36.53;24.23;;;9.60;99.90;;;;;;5120881;27;20119;-73
2021/04/21 00:39:03;;;;;;;33.20;24.35;;;9.60;99.90;;;;;;5119483;28;20028;-71
2021/04/21 00:41:48;;;;;;;36.45;25.40;;;9.60;99.90;;;;;;5119262;28;20028;-72
2021/04/21 00:44:29;;;;;;;38.38;26.77;;;9.60;99.90;;;;;;5120062;28;20010;-71
2021/04/21 00:47:01;;;;;;;38.22;25.58;;;9.50;99.90;;;;;;5119002;28;20534;-74
2021/04/21 00:49:57;;;;;;;43.38;29.88;;;9.50;99.90;;;;;;5121480;28;20019;-74
2021/04/21 00:52:43;;;;;;;;;;;9.40;99.90;;;;;;5120558;28;20088;-72
2021/04/21 00:55:39;;;;;;;43.80;29.98;;;9.30;99.90;;;;;;5118515;28;19912;-71
2021/04/21 00:58:20;;;;;;;42.83;29.73;;;9.40;99.90;;;;;;5116342;28;20095;-74
2021/04/21 01:00:47;;;;;;;49.67;33.55;;;9.40;99.90;;;;;;5119343;28;20144;-75
2021/04/21 01:03:18;;;;;;;47.50;32.75;;;9.40;99.90;;;;;;5119668;28;20028;-71
2021/04/21 01:06:06;;;;;;;58.22;38.83;;;9.50;99.90;;;;;;5118754;28;20020;-75
2021/04/21 01:08:45;;;;;;;55.08;36.10;;;9.50;99.90;;;;;;5119761;28;20097;-72
2021/04/21 01:11:30;;;;;;;62.72;42.97;;;9.80;99.90;;;;;;5119528;28;20030;-76
2021/04/21 01:14:00;;;;;;;63.55;42.22;;;9.70;99.90;;;;;;5119012;28;20011;-74
2021/04/21 01:16:29;;;;;;;52.05;33.63;;;9.50;99.90;;;;;;5118469;28;20093;-73
2021/04/21 01:19:00;;;;;;;52.63;36.22;;;9.40;99.90;;;;;;5120013;28;20027;-74
2021/04/21 01:21:37;;;;;;;52.83;36.05;;;9.50;99.90;;;;;;5120442;28;20028;-74
2021/04/21 01:24:15;;;;;;;53.63;35.28;;;9.50;99.90;;;;;;5121432;28;20478;-74
2021/04/21 01:26:55;;;;;;;59.63;38.65;;;9.50;99.90;;;;;;5117816;28;20059;-72
2021/04/21 01:29:43;;;;;;;62.47;38.70;;;9.50;99.90;;;;;;5119500;28;20161;-73
2021/04/21 01:32:23;;;;;;;55.95;35.80;;;9.40;99.90;;;;;;5118206;28;20035;-73
2021/04/21 01:34:51;;;;;;;50.53;34.75;;;9.50;99.90;;;;;;5117871;28;20458;-74
2021/04/21 01:37:21;;;;;;;52.45;33.90;;;9.50;99.90;;;;;;5117649;28;20165;-74
2021/04/21 01:40:20;;;;;;;46.78;33.58;;;9.40;99.90;;;;;;5116539;28;20028;-75
2021/04/21 01:42:50;;;;;;;50.67;32.70;;;9.30;99.90;;;;;;5114575;28;20042;-74
2021/04/21 01:45:22;;;;;;;47.13;32.30;;;9.30;99.90;;;;;;5117711;28;20008;-71
2021/04/21 01:47:50;;;;;;;42.13;30.80;;;9.30;99.90;;;;;;5115538;28;20512;-72
2021/04/21 01:50:18;;;;;;;46.80;32.47;;;9.40;99.90;;;;;;5117312;28;20077;-72
2021/04/21 01:53:01;;;;;;;46.20;31.25;;;9.30;99.90;;;;;;5119358;28;20023;-73
2021/04/21 01:55:46;;;;;;;48.10;33.75;;;9.30;99.90;;;;;;5119361;28;20020;-74
2021/04/21 01:58:14;;;;;;;;;;;9.40;99.90;;;;;;5117564;28;20032;-74
2021/04/21 02:00:51;;;;;;;65.15;43.80;;;9.30;99.90;;;;;;5115436;28;20272;-74
2021/04/21 02:03:29;;;;;;;57.60;38.70;;;9.30;99.90;;;;;;5117580;28;20461;-72
2021/04/21 02:06:34;;;;;;;51.22;33.55;;;9.30;99.90;;;;;;5116224;28;20088;-75
2021/04/21 02:09:09;;;;;;;47.47;34.05;;;9.20;99.90;;;;;;5118697;28;20530;-71
2021/04/21 02:11:39;;;;;;;47.08;32.88;;;9.20;99.90;;;;;;5117523;28;20020;-73
2021/04/21 02:14:19;;;;;;;51.58;33.60;;;9.20;99.90;;;;;;5119751;28;20107;-71
2021/04/21 02:17:04;;;;;;;51.97;33.55;;;9.10;99.90;;;;;;5114720;28;20028;-72
2021/04/21 02:20:16;;;;;;;46.83;31.48;;;9.10;99.90;;;;;;5118882;28;20027;-72
2021/04/21 02:23:12;;;;;;;58.08;38.70;;;9.10;99.90;;;;;;5108752;28;20032;-73
2021/04/21 02:26:01;;;;;;;55.63;38.10;;;9.20;99.90;;;;;;5111715;28;20081;-71
2021/04/21 02:28:58;;;;;;;59.03;41.03;;;9.10;99.90;;;;;;5119558;28;20032;-75
2021/04/21 02:31:24;;;;;;;54.55;38.50;;;9.10;99.90;;;;;;5119078;28;20051;-73
2021/04/21 02:34:10;;;;;;;49.13;33.50;;;9.20;99.90;;;;;;5115869;28;20023;-74
2021/04/21 02:36:58;;;;;;;50.53;35.35;;;9.20;99.90;;;;;;5118519;28;20047;-75
2021/04/21 02:39:58;;;;;;;50.78;34.58;;;9.10;99.90;;;;;;5117618;28;20034;-72
2021/04/21 02:42:41;;;;;;;49.85;35.00;;;9.20;99.90;;;;;;5115856;28;20032;-74
2021/04/21 02:45:40;;;;;;;50.33;35.53;;;9.10;99.90;;;;;;5117097;28;20024;-75
2021/04/21 02:48:20;;;;;;;52.75;35.00;;;9.00;99.90;;;;;;5111425;28;20039;-72
2021/04/21 02:50:58;;;;;;;45.67;33.13;;;9.00;99.90;;;;;;5115119;28;20020;-75
2021/04/21 02:53:30;;;;;;;43.38;31.08;;;8.90;99.90;;;;;;5119397;28;20110;-72
2021/04/21 02:56:23;;;;;;;44.97;30.98;;;9.00;99.90;;;;;;5119930;28;20023;-74
2021/04/21 02:58:49;;;;;;;39.25;28.65;;;8.90;99.90;;;;;;5120355;28;20541;-72
2021/04/21 03:01:45;;;;;;;37.38;26.25;;;8.90;99.90;;;;;;5120604;28;20024;-74
2021/04/21 03:04:37;;;;;;;36.50;26.27;;;8.90;99.90;;;;;;5101578;28;20032;-73
2021/04/21 03:07:08;;;;;;;34.92;25.10;;;8.90;99.90;;;;;;5120303;28;20023;-72
2021/04/21 03:09:49;;;;;;;35.65;25.88;;;8.80;99.90;;;;;;5120604;28;20069;-72
2021/04/21 03:12:23;;;;;;;39.72;26.10;;;8.80;99.90;;;;;;5121459;28;20027;-71
2021/04/21 03:14:52;;;;;;;37.42;25.88;;;8.90;99.90;;;;;;5120621;28;20031;-73
2021/04/21 03:17:19;;;;;;;38.22;24.88;;;8.90;99.90;;;;;;5120509;28;20020;-75
2021/04/21 03:20:04;;;;;;;37.95;25.67;;;8.80;99.90;;;;;;5120250;28;20029;-71
2021/04/21 03:22:31;;;;;;;;;;;8.90;99.90;;;;;;5120940;28;20039;-72
2021/04/21 03:25:00;;;;;;;36.38;25.55;;;8.90;99.90;;;;;;5121728;28;19904;-72
2021/04/21 03:27:32;;;;;;;39.08;25.75;;;8.90;99.90;;;;;;5120132;28;20395;-74
2021/04/21 03:30:03;;;;;;;36.45;25.17;;;8.90;99.90;;;;;;5121032;28;20034;-75
2021/04/21 03:32:35;;;;;;;39.10;26.98;;;8.90;99.90;;;;;;5119037;28;20028;-71
2021/04/21 03:35:02;;;;;;;46.35;29.20;;;8.80;99.90;;;;;;5119186;28;20024;-71
2021/04/21 03:38:01;;;;;;;46.83;29.75;;;8.70;99.90;;;;;;5121123;28;20032;-74
2021/04/21 03:40:28;;;;;;;41.05;29.13;;;8.80;99.90;;;;;;5121058;28;20032;-72
2021/04/21 03:42:55;;;;;;;49.72;32.75;;;8.80;99.90;;;;;;5120198;28;20076;-72
2021/04/21 03:45:21;;;;;;;49.03;33.78;;;8.80;99.90;;;;;;5120370;28;20047;-74
2021/04/21 03:47:49;;;;;;;56.03;36.25;;;8.90;99.90;;;;;;5122173;28;20022;-74
2021/04/21 03:50:17;;;;;;;51.22;35.08;;;8.90;99.90;;;;;;5119261;28;20019;-74
2021/04/21 03:52:46;;;;;;;63.88;37.90;;;8.90;99.90;;;;;;5121202;28;20006;-75
2021/04/21 03:55:13;;;;;;;63.05;39.70;;;8.90;99.90;;;;;;5121317;28;20031;-72
2021/04/21 03:57:48;;;;;;;66.25;45.95;;;9.00;99.90;;;;;;5118835;28;20542;-72
2021/04/21 04:00:17;;;;;;;81.50;54.35;;;9.00;99.90;;;;;;5119433;28;20540;-71
2021/04/21 04:02:52;;;;;;;74.32;50.10;;;8.90;99.90;;;;;;5116168;28;20065;-72
2021/04/21 04:05:26;;;;;;;71.55;43.95;;;8.90;99.90;;;;;;5120605;27;20027;-71
2021/04/21 04:07:56;;;;;;;71.30;40.72;;;8.90;99.90;;;;;;5114684;28;20031;-72
2021/04/21 04:10:24;;;;;;;71.60;40.08;;;8.90;99.90;;;;;;5116580;27;20007;-71
2021/04/21 04:12:53;;;;;;;60.45;36.13;;;8.90;99.90;;;;;;5119475;28;20365;-72
2021/04/21 04:15:20;;;;;;;51.00;32.92;;;8.90;99.90;;;;;;5119598;28;20024;-72
2021/04/21 04:17:48;;;;;;;39.95;28.25;;;9.00;99.90;;;;;;5119134;28;20050;-72
2021/04/21 04:20:16;;;;;;;34.05;23.75;;;8.90;99.90;;;;;;5118904;28;20023;-71
2021/04/21 04:22:47;;;;;;;35.70;24.75;;;9.00;99.90;;;;;;5121654;28;20073;-72
2021/04/21 04:25:13;;;;;;;41.10;26.88;;;8.90;99.90;;;;;;5119660;27;20031;-72
2021/04/21 04:27:41;;;;;;;51.13;31.63;;;8.90;99.90;;;;;;5120264;28;20075;-75
2021/04/21 04:30:07;;;;;;;52.63;33.25;;;8.80;99.90;;;;;;5120122;28;20433;-71
2021/04/21 04:32:40;;;;;;;60.80;41.58;;;8.90;99.90;;;;;;5116607;28;20030;-73
2021/04/21 04:35:07;;;;;;;59.63;39.67;;;8.90;99.90;;;;;;5116625;28;20032;-74
2021/04/21 04:37:38;;;;;;;53.22;36.00;;;8.90;99.90;;;;;;5118936;28;20024;-74
2021/04/21 04:40:09;;;;;;;52.15;34.28;;;8.90;99.90;;;;;;5119096;28;20038;-71
2021/04/21 04:42:37;;;;;;;47.88;32.00;;;9.00;99.90;;;;;;5119428;28;20027;-71
2021/04/21 04:45:04;;;;;;;44.35;29.05;;;9.10;99.90;;;;;;5118456;28;20016;-72
2021/04/21 04:47:37;;;;;;;35.28;24.70;;;9.20;99.90;;;;;;5120105;28;20035;-72
2021/04/21 04:50:09;;;;;;;36.08;24.02;;;9.30;99.90;;;;;;5119301;28;20024;-73
2021/04/21 04:52:40;;;;;;;42.80;26.75;;;9.30;99.90;;;;;;5119643;28;20011;-72
2021/04/21 04:55:08;;;;;;;45.95;27.55;;;;;;;;;;5122740;28;20050;-74
2021/04/21 04:57:37;;;;;;;52.53;30.58;;;9.50;99.90;;;;;;5120712;28;20003;-71
2021/04/21 05:00:10;;;;;;;59.17;32.58;;;9.60;99.90;;;;;;5121539;28;20030;-71
2021/04/21 05:03:05;;;;;;;61.83;35.60;;;9.60;99.90;;;;;;5118935;28;20433;-71
2021/04/21 05:05:35;;;;;;;59.50;32.67;;;9.60;99.90;;;;;;5104458;28;20055;-74
2021/04/21 05:08:12;;;;;;;54.88;30.77;;;9.70;99.90;;;;;;5117495;28;20358;-72
2021/04/21 05:10:42;;;;;;;49.00;29.48;;;9.70;99.90;;;;;;5117960;28;20493;-74
2021/04/21 05:13:11;;;;;;;53.60;30.50;;;9.70;99.90;;;;;;5118399;28;20034;-72
2021/04/21 05:15:40;;;;;;;68.13;36.15;;;9.70;99.90;;;;;;5119086;28;20062;-73
2021/04/21 05:18:12;;;;;;;74.07;42.40;;;9.80;99.90;;;;;;5120856;28;20024;-74
2021/04/21 05:21:08;;;;;;;73.85;43.53;;;9.80;99.90;;;;;;5119059;28;20023;-72
2021/04/21 05:24:17;;;;;;;54.00;33.55;;;9.90;99.90;;;;;;5117868;28;20369;-73
2021/04/21 05:26:55;;;;;;;54.33;34.08;;;9.90;99.90;;;;;;5118449;28;20067;-73
2021/04/21 05:29:43;;;;;;;53.95;33.83;;;9.90;99.90;;;;;;5120917;28;20076;-73
2021/04/21 05:32:30;;;;;;;53.78;32.80;;;9.90;99.90;;;;;;5115778;28;20043;-72
2021/04/21 05:35:33;;;;;;;50.22;32.03;;;9.90;99.90;;;;;;5115370;28;20080;-73
2021/04/21 05:38:20;;;;;;;41.20;27.40;;;10.00;99.90;;;;;;5114349;28;20063;-72
2021/04/21 05:40:52;;;;;;;37.13;25.13;;;10.00;99.90;;;;;;5116761;28;20062;-72
2021/04/21 05:43:59;;;;;;;34.78;22.75;;;10.10;99.90;;;;;;5119739;28;20469;-73
2021/04/21 05:46:56;;;;;;;34.65;21.50;;;10.10;99.90;;;;;;5118629;28;20350;-73
2021/04/21 05:49:43;;;;;;;34.50;22.27;;;10.20;99.90;;;;;;5118550;28;20024;-74
2021/04/21 05:52:33;;;;;;;48.10;33.60;;;10.30;99.90;;;;;;5114320;28;20028;-74
2021/04/21 05:55:23;;;;;;;36.15;22.77;;;10.30;99.90;;;;;;5122342;28;20027;-72
2021/04/21 05:57:58;;;;;;;28.10;19.13;;;10.40;99.90;;;;;;5120803;28;20032;-74
2021/04/21 06:00:42;;;;;;;28.48;18.42;;;10.60;99.90;;;;;;5117051;28;20418;-72
2021/04/21 06:03:09;;;;;;;31.05;18.60;;;10.60;99.90;;;;;;5116399;28;20038;-73
2021/04/21 06:05:35;;;;;;;31.33;20.25;;;;;;;;;;5119050;28;20027;-73
2021/04/21 06:08:12;;;;;;;25.00;17.63;;;10.80;99.90;;;;;;5119583;28;20022;-73
2021/04/21 06:10:40;;;;;;;27.30;18.17;;;10.80;99.90;;;;;;5120007;28;20172;-72
2021/04/21 06:13:06;;;;;;;28.70;20.23;;;10.80;99.90;;;;;;5119369;28;20473;-73
2021/04/21 06:15:37;;;;;;;35.30;22.85;;;10.90;99.90;;;;;;5119363;28;20004;-73
2021/04/21 06:18:09;;;;;;;42.15;20.90;;;10.90;99.90;;;;;;5121081;28;20024;-72
2021/04/21 06:20:38;;;;;;;33.70;22.70;;;11.00;99.90;;;;;;5114981;28;20036;-72
2021/04/21 06:23:13;;;;;;;34.63;22.60;;;11.10;99.90;;;;;;5120001;28;20045;-74
2021/04/21 06:25:39;;;;;;;;;;;11.10;99.90;;;;;;5117641;28;20027;-73
2021/04/21 06:28:12;;;;;;;35.22;22.60;;;11.20;99.90;;;;;;5119871;28;19916;-73
2021/04/21 06:30:39;;;;;;;30.75;20.25;;;11.10;99.90;;;;;;5122204;28;20040;-74
2021/04/21 06:33:07;;;;;;;34.83;19.02;;;11.10;99.90;;;;;;5121904;28;20211;-73
2021/04/21 06:35:34;;;;;;;33.55;19.65;;;11.10;99.90;;;;;;5120670;28;20383;-74
2021/04/21 06:38:01;;;;;;;54.45;29.63;;;11.10;99.90;;;;;;5122393;28;20027;-74
2021/04/21 06:40:31;;;;;;;31.77;19.67;;;11.20;99.90;;;;;;5120846;28;20027;-73
2021/04/21 06:42:58;;;;;;;26.58;17.38;;;11.20;99.90;;;;;;5121954;28;20016;-74
2021/04/21 06:45:32;;;;;;;28.83;19.27;;;11.20;99.90;;;;;;5121556;28;20016;-75
2021/04/21 06:48:00;;;;;;;35.42;21.90;;;11.20;99.90;;;;;;5119698;28;20019;-74
2021/04/21 06:50:32;;;;;;;28.70;19.70;;;11.20;99.90;;;;;;5117722;28;20489;-74
2021/04/21 06:53:03;;;;;;;29.40;19.85;;;11.20;99.90;;;;;;5121158;28;20043;-74
2021/04/21 06:55:31;;;;;;;23.02;16.42;;;11.20;99.90;;;;;;5122698;28;20107;-73
2021/04/21 06:57:57;;;;;;;23.00;15.23;;;11.30;99.90;;;;;;5120908;28;20537;-72
2021/04/21 07:00:25;;;;;;;55.30;25.05;;;11.30;99.90;;;;;;5120453;28;20004;-71
2021/04/21 07:02:53;;;;;;;35.33;23.10;;;11.40;99.90;;;;;;5121374;28;20020;-72
2021/04/21 07:05:39;;;;;;;102.28;66.43;;;11.40;99.90;;;;;;5121758;28;20026;-75
2021/04/21 07:08:09;;;;;;;43.95;34.20;;;11.40;99.90;;;;;;5122003;28;20026;-74
2021/04/21 07:10:42;;;;;;;24.98;17.48;;;11.40;99.90;;;;;;5118536;28;20050;-73
2021/04/21 07:13:14;;;;;;;48.05;35.63;;;11.40;99.90;;;;;;5120411;28;20023;-75
2021/04/21 07:15:41;;;;;;;26.00;18.90;;;11.50;99.90;;;;;;5121682;28;20016;-71
2021/04/21 07:18:13;;;;;;;37.13;23.83;;;11.50;99.90;;;;;;5121362;28;20122;-73
2021/04/21 07:20:40;;;;;;;38.30;24.13;;;11.50;99.90;;;;;;5122702;28;20031;-71
2021/04/21 07:23:07;;;;;;;39.22;19.60;;;11.50;99.90;;;;;;5121299;28;20015;-75
2021/04/21 07:25:33;;;;;;;64.88;44.40;;;11.50;99.90;;;;;;5119875;28;20027;-75
2021/04/21 07:27:59;;;;;;;29.73;22.25;;;11.60;99.90;;;;;;5119889;28;20439;-71
2021/04/21 07:30:32;;;;;;;40.75;23.85;;;11.60;99.90;;;;;;5119215;28;20019;-75
2021/04/21 07:32:59;;;;;;;24.58;17.02;;;11.70;99.90;;;;;;5120087;28;20032;-72
2021/04/21 07:35:26;;;;;;;38.90;23.88;;;11.90;99.90;;;;;;5116817;28;20091;-71
2021/04/21 07:37:56;;;;;;;33.50;22.17;;;;;;;;;;5119686;28;20416;-75
2021/04/21 07:40:37;;;;;;;41.70;29.83;;;12.00;99.90;;;;;;5114155;28;20035;-72
2021/04/21 07:43:16;;;;;;;53.35;35.80;;;12.10;99.90;;;;;;5112471;28;20481;-74
2021/04/21 07:45:55;;;;;;;52.97;28.77;;;12.00;99.90;;;;;;5118553;28;20095;-72
2021/04/21 07:48:35;;;;;;;75.93;51.17;;;12.20;99.90;;;;;;5118414;28;20020;-73
2021/04/21 07:51:24;;;;;;;140.98;64.57;;;12.30;99.90;;;;;;5117774;28;20020;-72
2021/04/21 07:54:03;;;;;;;30.48;21.73;;;12.50;99.90;;;;;;5120657;28;20024;-71
2021/04/21 07:56:52;;;;;;;75.55;38.65;;;12.50;99.90;;;;;;5121967;28;20477;-75
2021/04/21 07:59:25;;;;;;;55.83;27.27;;;12.70;99.90;;;;;;5121781;28;20023;-72
2021/04/21 08:01:53;;;;;;;34.80;19.73;;;12.80;99.90;;;;;;5120610;28;20028;-76
2021/04/21 08:04:26;;;;;;;77.18;40.92;;;12.80;99.10;;;;;;5120969;28;20031;-74
2021/04/21 08:06:54;;;;;;;22.67;14.82;;;12.90;99.20;;;;;;5119293;28;20019;-75
2021/04/21 08:09:21;;;;;;;30.90;18.73;;;12.90;99.00;;;;;;5120144;28;20012;-72
2021/04/21 08:12:10;;;;;;;34.92;20.75;;;13.00;99.00;;;;;;5118239;28;20114;-71
2021/04/21 08:14:47;;;;;;;17.42;12.75;;;13.20;98.10;;;;;;5118395;28;20106;-73
2021/04/21 08:17:15;;;;;;;21.65;14.45;;;13.40;96.90;;;;;;5119378;28;20034;-70
2021/04/21 08:19:44;;;;;;;13.75;10.50;;;13.70;98.30;;;;;;5117007;28;20034;-72
2021/04/21 08:22:10;;;;;;;18.35;14.77;;;13.70;97.30;;;;;;5115962;28;20027;-72
2021/04/21 08:24:42;;;;;;;38.03;27.05;;;13.70;96.30;;;;;;5116901;28;20450;-71
2021/04/21 08:27:11;;;;;;;27.75;19.48;;;13.80;96.00;;;;;;5115019;28;20071;-75
2021/04/21 08:29:37;;;;;;;23.00;16.63;;;13.90;95.50;;;;;;5117633;28;20350;-72
2021/04/21 08:32:04;;;;;;;20.20;14.18;;;14.00;95.60;;;;;;5115614;28;20026;-73
2021/04/21 08:34:30;;;;;;;14.18;10.90;;;14.30;94.70;;;;;;5116790;28;20039;-73
2021/04/21 08:36:56;;;;;;;13.88;8.98;;;14.80;93.10;;;;;;5118477;28;20027;-71
2021/04/21 08:39:22;;;;;;;13.07;8.10;;;14.70;92.80;;;;;;5119326;28;20024;-74
2021/04/21 08:41:53;;;;;;;30.45;18.13;;;14.90;94.00;;;;;;5118974;28;20004;-71
2021/04/21 08:44:19;;;;;;;18.20;12.02;;;14.90;92.30;;;;;;5118783;28;20079;-74
2021/04/21 08:46:47;;;;;;;14.57;9.85;;;15.40;92.00;;;;;;5118643;28;20031;-72
2021/04/21 08:49:13;;;;;;;13.32;9.60;;;15.90;91.80;;;;;;5116859;28;20405;-72
2021/04/21 08:51:41;;;;;;;8.82;6.53;;;16.00;90.20;;;;;;5114567;28;20493;-71
2021/04/21 08:54:11;;;;;;;10.00;7.18;;;16.10;88.30;;;;;;5117415;28;20024;-72
2021/04/21 08:56:41;;;;;;;11.20;7.80;;;16.10;85.00;;;;;;5117410;28;20020;-72
2021/04/21 08:59:09;;;;;;;18.20;14.48;;;16.10;87.20;;;;;;5118889;28;20028;-71
2021/04/21 09:01:35;;;;;;;13.90;10.50;;;16.40;87.30;;;;;;5119487;28;20020;-71
2021/04/21 09:04:01;;;;;;;11.30;7.90;;;16.10;87.20;;;;;;5118141;28;20026;-73
2021/04/21 09:06:28;;;;;;;15.18;12.00;;;16.20;90.00;;;;;;5116287;28;20024;-73
2021/04/21 09:08:56;;;;;;;40.72;26.15;;;16.40;90.50;;;;;;5116855;28;20068;-72
2021/04/21 09:11:22;;;;;;;30.85;20.83;;;;;;;;;;5116357;28;20020;-72
2021/04/21 09:13:49;;;;;;;16.23;11.52;;;16.50;87.40;;;;;;5118139;28;20027;-73
2021/04/21 09:16:18;;;;;;;31.75;20.80;;;17.10;89.20;;;;;;5118049;28;20024;-71
2021/04/21 09:18:44;;;;;;;39.92;24.38;;;16.70;88.00;;;;;;5115671;28;20489;-72
2021/04/21 09:21:18;;;;;;;28.92;18.88;;;16.70;89.50;;;;;;5113271;28;20034;-71
2021/04/21 09:23:46;;;;;;;11.40;8.38;;;16.70;88.30;;;;;;5111369;28;20020;-71
2021/04/21 09:26:16;;;;;;;24.25;16.23;;;16.90;88.40;;;;;;5113678;28;20069;-71
2021/04/21 09:28:47;;;;;;;18.52;12.60;;;17.40;90.50;;;;;;5111480;28;20049;-71
2021/04/21 09:31:24;;;;;;;16.70;11.93;;;17.40;84.20;;;;;;5112395;28;20040;-71
2021/04/21 09:34:13;;;;;;;15.10;10.63;;;17.30;88.10;;;;;;5112474;28;20147;-72
2021/04/21 09:36:41;;;;;;;14.15;10.75;;;16.60;86.50;;;;;;5114595;28;20488;-70
2021/04/21 09:39:21;;;;;;;20.08;14.27;;;17.00;89.20;;;;;;5117028;28;20358;-73
2021/04/21 09:41:49;;;;;;;12.98;8.95;;;17.20;83.70;;;;;;5114412;28;20035;-71
2021/04/21 09:44:27;;;;;;;17.67;12.32;;;17.30;82.60;;;;;;5113913;28;20025;-73
2021/04/21 09:46:54;;;;;;;13.65;10.15;;;17.80;85.70;;;;;;5111113;28;20032;-73
2021/04/21 09:49:48;;;;;;;17.00;10.82;;;18.30;78.60;;;;;;5114318;28;20458;-72
2021/04/21 09:52:13;;;;;;;11.80;9.63;;;17.70;79.20;;;;;;5110203;28;20035;-73
2021/04/21 09:54:42;;;;;;;13.63;9.50;;;17.60;81.60;;;;;;5114862;28;20045;-72
2021/04/21 09:57:13;;;;;;;19.38;13.48;;;17.70;80.60;;;;;;5111896;28;20106;-73
2021/04/21 09:59:41;;;;;;;17.60;11.73;;;17.00;81.60;;;;;;5114581;28;20118;-72
2021/04/21 10:02:32;;;;;;;19.60;13.52;;;17.40;83.70;;;;;;5117633;28;20050;-74
2021/04/21 10:04:58;;;;;;;11.88;9.32;;;17.70;81.00;;;;;;5118205;28;20030;-74
2021/04/21 10:07:24;;;;;;;14.20;11.85;;;17.40;77.40;;;;;;5120961;28;20022;-75
2021/04/21 10:09:57;;;;;;;12.90;8.88;;;17.10;79.30;;;;;;5120996;28;20072;-72
2021/04/21 10:12:32;;;;;;;21.85;17.08;;;17.20;83.00;;;;;;5118921;28;20424;-75
2021/04/21 10:15:02;;;;;;;15.73;12.18;;;17.60;85.00;;;;;;5123503;28;20034;-74
2021/04/21 10:17:30;;;;;;;18.75;14.90;;;17.70;80.70;;;;;;5122823;28;20077;-75
2021/04/21 10:20:00;;;;;;;15.48;12.25;;;17.50;81.90;;;;;;5121738;28;20024;-75
2021/04/21 10:22:27;;;;;;;22.55;15.80;;;17.30;83.10;;;;;;5121293;28;20047;-74
2021/04/21 10:24:53;;;;;;;60.10;43.85;;;17.10;83.00;;;;;;5121157;28;20053;-73
2021/04/21 10:27:20;;;;;;;12.40;10.20;;;16.70;81.80;;;;;;5119693;28;20405;-74
2021/04/21 10:29:46;;;;;;;25.33;19.98;;;16.80;84.80;;;;;;5120909;28;20035;-74
2021/04/21 10:32:16;;;;;;;23.65;16.75;;;16.60;83.00;;;;;;5123261;28;20016;-74
2021/04/21 10:34:46;;;;;;;32.97;26.58;;;17.10;85.60;;;;;;5121950;28;20027;-75
2021/04/21 10:37:17;;;;;;;25.58;21.02;;;17.90;83.20;;;;;;5119547;28;20420;-75
2021/04/21 10:39:45;;;;;;;13.57;10.95;;;18.30;78.50;;;;;;5120197;28;20377;-74
2021/04/21 10:42:16;;;;;;;11.35;9.15;;;18.70;80.30;;;;;;5121386;28;20032;-74
2021/04/21 10:44:44;;;;;;;17.27;13.35;;;19.00;73.00;;;;;;5121607;28;20127;-73
2021/04/21 10:47:17;;;;;;;15.43;11.18;;;18.80;71.90;;;;;;5120167;28;20548;-75
2021/04/21 10:50:01;;;;;;;15.68;11.63;;;19.00;71.00;;;;;;5121112;28;20039;-74
2021/04/21 10:52:27;;;;;;;27.80;17.08;;;19.20;71.50;;;;;;5121501;28;20099;-76
2021/04/21 10:54:56;;;;;;;33.60;20.20;;;19.50;68.90;;;;;;5119344;28;20024;-75
2021/04/21 10:57:22;;;;;;;27.15;18.98;;;;;;;;;;5119700;28;20389;-75
2021/04/21 11:00:24;;;;;;;58.95;34.03;;;19.70;70.20;;;;;;5118896;28;20027;-75
2021/04/21 11:02:56;;;;;;;54.63;30.45;;;19.20;68.30;;;;;;5119254;28;20125;-74
2021/04/21 11:05:41;;;;;;;91.07;51.97;;;19.00;68.80;;;;;;5121708;28;20072;-75
2021/04/21 11:08:15;;;;;;;;;;;19.50;70.60;;;;;;5124285;28;20012;-74
2021/04/21 11:10:49;;;;;;;18.58;13.65;;;20.10;63.10;;;;;;5120554;28;19910;-73
2021/04/21 11:13:40;;;;;;;86.55;48.63;;;19.70;59.20;;;;;;5121736;28;20207;-73
2021/04/21 11:16:36;;;;;;;150.30;84.47;;;20.50;64.70;;;;;;5122780;27;20068;-72
2021/04/21 11:19:17;;;;;;;88.20;43.17;;;20.00;59.60;;;;;;5124919;28;20106;-74
2021/04/21 11:21:44;;;;;;;13.70;11.23;;;20.00;63.70;;;;;;5122478;27;20024;-75
2021/04/21 11:24:12;;;;;;;23.77;16.85;;;20.10;62.70;;;;;;5117971;28;20020;-72
2021/04/21 11:26:43;;;;;;;19.05;13.85;;;20.60;62.50;;;;;;5123488;27;20104;-74
2021/04/21 11:29:19;;;;;;;21.25;16.20;;;20.50;62.30;;;;;;5123178;28;20042;-74
2021/04/21 11:31:46;;;;;;;16.10;11.75;;;20.30;59.80;;;;;;5125325;28;20083;-74
2021/04/21 11:34:26;;;;;;;12.40;9.98;;;20.90;60.20;;;;;;5124048;28;20088;-73
2021/04/21 11:36:59;;;;;;;25.25;16.88;;;20.80;57.70;;;;;;5123587;28;20018;-74
2021/04/21 11:39:40;;;;;;;14.32;11.35;;;20.40;62.50;;;;;;5124431;28;20130;-75
2021/04/21 11:42:19;;;;;;;13.13;10.45;;;20.80;61.70;;;;;;5123895;28;20008;-75
2021/04/21 11:45:06;;;;;;;11.95;8.00;;;20.90;57.50;;;;;;5122830;28;20032;-76
2021/04/21 11:47:45;;;;;;;9.15;7.88;;;20.20;58.80;;;;;;5121729;28;20035;-72
2021/04/21 11:50:17;;;;;;;32.10;19.55;;;20.30;59.30;;;;;;5117866;28;20081;-74
2021/04/21 11:52:45;;;;;;;15.98;10.73;;;20.20;60.30;;;;;;5118317;28;20528;-74
2021/04/21 11:55:18;;;;;;;31.70;19.10;;;20.60;58.20;;;;;;5120516;27;20051;-72
2021/04/21 11:57:53;;;;;;;38.80;19.52;;;20.50;56.60;;;;;;5120316;28;20362;-74
2021/04/21 12:00:31;;;;;;;9.50;7.53;;;20.60;58.40;;;;;;5120050;28;20047;-74
2021/04/21 12:02:58;;;;;;;95.95;45.65;;;21.10;58.70;;;;;;5112492;28;20119;-73
2021/04/21 12:05:43;;;;;;;34.17;17.23;;;21.70;57.20;;;;;;5114913;28;20012;-74
2021/04/21 12:08:10;;;;;;;11.98;8.20;;;20.90;53.50;;;;;;5111245;28;20035;-73
2021/04/21 12:10:38;;;;;;;16.00;10.07;;;21.00;55.40;;;;;;5114964;28;20023;-72
2021/04/21 12:13:17;;;;;;;10.23;7.00;;;21.30;54.90;;;;;;5113174;28;20477;-73
2021/04/21 12:15:45;;;;;;;30.27;14.63;;;21.60;55.30;;;;;;5112592;28;20546;-74
2021/04/21 12:18:11;;;;;;;19.33;12.35;;;22.10;54.20;;;;;;5114890;28;20028;-74
2021/04/21 12:20:37;;;;;;;25.45;14.45;;;21.40;51.60;;;;;;5113919;28;20023;-74
2021/04/21 12:23:03;;;;;;;36.58;22.95;;;21.20;53.70;;;;;;5110874;28;20031;-75
2021/04/21 12:25:30;;;;;;;36.88;19.55;;;21.00;52.80;;;;;;5114455;28;20469;-75
2021/04/21 12:28:00;;;;;;;11.88;9.35;;;20.70;50.90;;;;;;5113660;28;20113;-72
2021/04/21 12:30:31;;;;;;;95.18;34.50;;;20.30;53.00;;;;;;5114441;28;20039;-73
2021/04/21 12:33:06;;;;;;;19.00;10.65;;;20.10;53.40;;;;;;5114434;28;20119;-72
2021/04/21 12:35:32;;;;;;;34.30;15.60;;;20.00;56.50;;;;;;5119210;28;20023;-73
2021/04/21 12:38:00;;;;;;;23.63;14.35;;;19.60;56.30;;;;;;5116525;28;20493;-73
2021/04/21 12:40:32;;;;;;;21.23;14.00;;;19.70;57.50;;;;;;5114324;28;20058;-72
2021/04/21 12:43:16;;;;;;;25.92;13.38;;;19.40;56.80;;;;;;5113172;28;20024;-74
2021/04/21 12:45:43;;;;;;;33.97;20.60;;;19.00;58.70;;;;;;5112216;28;20027;-71
2021/04/21 12:48:26;;;;;;;31.02;15.77;;;19.10;58.90;;;;;;5111759;28;20047;-73
2021/04/21 12:50:55;;;;;;;31.60;17.38;;;19.00;58.50;;;;;;5111485;28;20055;-71
2021/04/21 12:53:23;;;;;;;37.42;21.77;;;19.10;58.90;;;;;;5114370;28;20047;-73
2021/04/21 12:56:02;;;;;;;28.10;18.10;;;19.00;60.40;;;;;;5111863;28;20501;-73
2021/04/21 12:58:37;;;;;;;18.20;12.57;;;18.80;60.70;;;;;;5109520;28;20034;-73
2021/04/21 13:01:11;;;;;;;49.85;29.10;;;18.50;66.10;;;;;;5116059;28;20014;-74
2021/04/21 13:03:38;;;;;;;44.45;33.58;;;18.40;64.60;;;;;;5121653;28;20024;-72
2021/04/21 13:06:04;;;;;;;36.47;30.65;;;18.40;65.50;;;;;;5126367;28;20024;-74
2021/04/21 13:08:32;;;;;;;30.63;22.55;;;18.10;66.00;;;;;;5126155;28;20024;-73
2021/04/21 13:11:00;;;;;;;31.45;24.25;;;18.10;64.60;;;;;;5123377;28;20008;-75